createdAt,value
2023-12-29T00:01:57.741Z,100808.06
2023-12-29T00:04:25.647Z,100808.06
2023-12-29T00:06:59.853Z,100809.13
2023-12-29T00:09:30.663Z,100797.53
2023-12-29T00:11:58.462Z,100814.28
2023-12-29T00:14:27.433Z,100809.72
2023-12-29T00:16:58.393Z,100803.50
2023-12-29T00:19:26.402Z,100804.34
2023-12-29T00:21:54.523Z,100800.81
2023-12-29T00:24:22.281Z,100805.38
2023-12-29T00:26:50.030Z,100808.06
2023-12-29T00:29:17.783Z,100792.97
2023-12-29T00:31:45.591Z,100772.50
2023-12-29T00:34:14.972Z,100776.38
2023-12-29T00:36:42.876Z,100748.88
2023-12-29T00:39:10.652Z,100773.09
2023-12-29T00:41:38.395Z,100764.44
2023-12-29T00:44:06.469Z,100753.63
2023-12-29T00:46:34.314Z,100762.56
2023-12-29T00:49:02.233Z,100759.06
2023-12-29T00:51:31.449Z,100761.50
2023-12-29T00:53:59.320Z,100765.03
2023-12-29T00:56:27.078Z,100773.31
2023-12-29T00:58:54.873Z,100778.09
2023-12-29T01:01:22.802Z,100769.69
2023-12-29T01:03:50.641Z,100769.22
2023-12-29T01:06:18.428Z,100771.91
2023-12-29T01:08:47.570Z,100768.63
2023-12-29T01:11:15.365Z,100777.16
2023-12-29T01:13:43.102Z,100772.00
2023-12-29T01:16:11.199Z,100764.63
2023-12-29T01:18:39.158Z,100766.84
2023-12-29T01:21:07.091Z,100770.59
2023-12-29T01:23:34.866Z,100778.88
2023-12-29T01:26:04.085Z,100769.75
2023-12-29T01:28:31.834Z,100775.38
2023-12-29T01:30:59.751Z,100772.44
2023-12-29T01:33:27.538Z,100772.69
2023-12-29T01:35:55.276Z,100774.78
2023-12-29T01:38:23.058Z,100775.59
2023-12-29T01:40:50.820Z,100775.16
2023-12-29T01:43:20.046Z,100769.16
2023-12-29T01:45:55.479Z,100768.34
2023-12-29T01:48:26.787Z,100748.47
2023-12-29T01:50:56.494Z,100752.22
2023-12-29T01:53:34.422Z,100752.22
2023-12-29T01:56:09.019Z,100746.84
2023-12-29T01:58:38.445Z,100740.41
2023-12-29T02:01:09.081Z,100740.41
2023-12-29T02:03:37.488Z,100742.28
2023-12-29T02:06:06.858Z,100744.38
2023-12-29T02:08:34.931Z,100740.03
2023-12-29T02:11:02.904Z,100744.38
2023-12-29T02:13:30.668Z,100738.75
2023-12-29T02:16:06.347Z,100742.50
2023-12-29T02:18:36.820Z,100739.22
2023-12-29T02:21:04.885Z,100753.50
2023-12-29T02:23:32.642Z,100758.88
2023-12-29T02:26:09.669Z,100755.13
2023-12-29T02:28:42.608Z,100749.75
2023-12-29T02:31:18.753Z,100748.09
2023-12-29T02:33:47.966Z,100752.91
2023-12-29T02:36:18.424Z,100747.50
2023-12-29T02:38:46.810Z,100749.16
2023-12-29T02:41:16.219Z,100747.44
2023-12-29T02:43:43.995Z,100747.06
2023-12-29T02:46:11.942Z,100753.50
2023-12-29T02:48:39.765Z,100755.59
2023-12-29T02:51:09.504Z,100750.19
2023-12-29T02:53:37.345Z,100747.75
2023-12-29T02:56:05.614Z,100751.47
2023-12-29T02:58:34.737Z,100748.56
2023-12-29T03:01:02.613Z,100745.28
2023-12-29T03:03:30.487Z,100749.84
2023-12-29T03:05:58.312Z,100745.75
2023-12-29T03:08:26.209Z,100743.88
2023-12-29T03:10:53.967Z,100745.50
2023-12-29T03:13:21.754Z,100723.84
2023-12-29T03:15:50.909Z,100728.56
2023-12-29T03:18:18.791Z,100736.41
2023-12-29T03:20:46.649Z,100723.16
2023-12-29T03:23:14.453Z,100731.47
2023-12-29T03:25:42.279Z,100715.66
2023-12-29T03:28:10.615Z,100729.38
2023-12-29T03:30:38.529Z,100739.91
2023-12-29T03:33:08.002Z,100750.66
2023-12-29T03:35:35.832Z,100740.13
2023-12-29T03:38:04.013Z,100746.56
2023-12-29T03:40:31.941Z,100742.44
2023-12-29T03:42:59.782Z,100742.22
2023-12-29T03:45:27.585Z,100741.63
2023-12-29T03:47:55.405Z,100737.31
2023-12-29T03:50:24.676Z,100745.97
2023-12-29T03:52:52.467Z,100741.19
2023-12-29T03:55:20.250Z,100733.34
2023-12-29T03:57:48.145Z,100740.34
2023-12-29T04:00:16.901Z,100724.69
2023-12-29T04:02:44.696Z,100715.34
2023-12-29T04:05:12.652Z,100734.38
2023-12-29T04:07:42.723Z,100731.69
2023-12-29T04:10:11.766Z,100734.63
2023-12-29T04:12:39.624Z,100736.47
2023-12-29T04:15:08.444Z,100730.28
2023-12-29T04:17:36.357Z,100727.59
2023-12-29T04:20:04.547Z,100720.34
2023-12-29T04:22:32.375Z,100733.78
2023-12-29T04:25:01.651Z,100741.84
2023-12-29T04:27:29.472Z,100741.84
2023-12-29T04:29:57.214Z,100725.72
2023-12-29T04:32:24.945Z,100731.31
2023-12-29T04:34:52.701Z,100724.91
2023-12-29T04:37:20.479Z,100720.56
2023-12-29T04:39:48.260Z,100735.88
2023-12-29T04:42:19.039Z,100731.56
2023-12-29T04:44:46.821Z,100736.13
2023-12-29T04:47:14.609Z,100726.19
2023-12-29T04:49:42.557Z,100717.16
2023-12-29T04:52:10.468Z,100730.97
2023-12-29T04:54:38.319Z,100725.59
2023-12-29T04:57:06.613Z,100730.97
2023-12-29T04:59:35.856Z,100723.13
2023-12-29T05:02:03.687Z,100735.75
2023-12-29T05:04:31.534Z,100727.69
2023-12-29T05:06:59.442Z,100734.09
2023-12-29T05:09:27.258Z,100738.44
2023-12-29T05:11:55.310Z,100726.88
2023-12-29T05:14:23.048Z,100726.03
2023-12-29T05:16:52.157Z,100722.53
2023-12-29T05:19:20.018Z,100721.25
2023-12-29T05:21:50.803Z,100724.25
2023-12-29T05:24:18.557Z,100729.31
2023-12-29T05:26:46.282Z,100751.88
2023-12-29T05:29:14.052Z,100732.25
2023-12-29T05:31:41.859Z,100720.66
2023-12-29T05:34:11.127Z,100731.41
2023-12-29T05:36:39.857Z,100732.25
2023-12-29T05:39:08.535Z,100723.34
2023-12-29T05:41:36.342Z,100716.34
2023-12-29T05:44:04.470Z,100727.09
2023-12-29T05:46:32.292Z,100724.63
2023-12-29T05:49:00.253Z,100701.41
2023-12-29T05:51:29.502Z,100718.44
2023-12-29T05:53:57.310Z,100712.69
2023-12-29T05:56:26.385Z,100724.25
2023-12-29T05:58:54.443Z,100714.31
2023-12-29T06:01:22.413Z,100710.59
2023-12-29T06:03:50.361Z,100715.16
2023-12-29T06:06:18.826Z,100702.75
2023-12-29T06:08:47.991Z,100700.28
2023-12-29T06:11:17.422Z,100694.31
2023-12-29T06:13:45.245Z,100695.97
2023-12-29T06:16:19.966Z,100706.50
2023-12-29T06:18:48.103Z,100705.66
2023-12-29T06:21:15.979Z,100705.81
2023-12-29T06:23:43.796Z,100687.66
2023-12-29T06:26:19.490Z,100690.34
2023-12-29T06:28:47.580Z,100693.03
2023-12-29T06:31:15.717Z,100701.94
2023-12-29T06:33:43.139Z,100706.63
2023-12-29T06:36:11.461Z,100719.25
2023-12-29T06:38:39.290Z,100717.75
2023-12-29T06:41:07.154Z,100713.66
2023-12-29T06:43:36.363Z,100713.69
2023-12-29T06:46:04.890Z,100732.34
2023-12-29T06:48:32.937Z,100704.66
2023-12-29T06:51:00.788Z,100711.97
2023-12-29T06:53:28.613Z,100701.69
2023-12-29T06:55:56.409Z,100696.09
2023-12-29T06:58:24.240Z,100692.47
2023-12-29T07:00:53.520Z,100708.06
2023-12-29T07:03:21.471Z,100693.75
2023-12-29T07:05:49.436Z,100696.75
2023-12-29T07:08:17.444Z,100682.38
2023-12-29T07:10:45.250Z,100688.31
2023-12-29T07:13:13.098Z,100695.44
2023-12-29T07:15:41.032Z,100690.75
2023-12-29T07:18:10.341Z,100691.09
2023-12-29T07:20:38.205Z,100679.16
2023-12-29T07:23:06.385Z,100689.44
2023-12-29T07:25:34.195Z,100702.06
2023-12-29T07:28:02.367Z,100716.78
2023-12-29T07:30:30.424Z,100707.06
2023-12-29T07:32:58.230Z,100719.94
2023-12-29T07:35:27.590Z,100697.38
2023-12-29T07:37:55.480Z,100688.94
2023-12-29T07:40:23.810Z,100673.03
2023-12-29T07:42:52.099Z,100647.41
2023-12-29T07:45:20.109Z,100653.84
2023-12-29T07:47:48.015Z,100682.59
2023-12-29T07:50:15.964Z,100675.81
2023-12-29T07:52:46.643Z,100652.28
2023-12-29T07:55:14.543Z,100663.06
2023-12-29T07:57:42.355Z,100668.66
2023-12-29T08:00:11.443Z,100674.03
2023-12-29T08:02:39.191Z,100689.59
2023-12-29T08:05:09.388Z,100697.88
2023-12-29T08:07:37.583Z,100705.13
2023-12-29T08:10:08.375Z,100708.03
2023-12-29T08:12:37.063Z,100711.53
2023-12-29T08:15:06.743Z,100706.16
2023-12-29T08:17:34.503Z,100706.41
2023-12-29T08:20:02.377Z,100711.78
2023-12-29T08:22:33.401Z,100722.53
2023-12-29T08:25:01.227Z,100718.19
2023-12-29T08:27:30.314Z,100721.94
2023-12-29T08:29:58.369Z,100706.03
2023-12-29T08:32:26.136Z,100713.28
2023-12-29T08:34:54.103Z,100707.66
2023-12-29T08:37:22.075Z,100717.38
2023-12-29T08:39:50.121Z,100723.22
2023-12-29T08:42:18.264Z,100724.03
2023-12-29T08:44:47.373Z,100723.22
2023-12-29T08:47:15.233Z,100727.78
2023-12-29T08:49:43.139Z,100729.41
2023-12-29T08:52:11.065Z,100727.78
2023-12-29T08:54:38.891Z,100732.56
2023-12-29T08:57:07.888Z,100732.69
2023-12-29T08:59:35.791Z,100737.47
2023-12-29T09:02:05.352Z,100743.66
2023-12-29T09:04:33.201Z,100743.66
2023-12-29T09:07:01.059Z,100741.56
2023-12-29T09:09:28.860Z,100718.66
2023-12-29T09:11:56.607Z,100737.47
2023-12-29T09:14:24.354Z,100728.59
2023-12-29T09:16:52.138Z,100734.78
2023-12-29T09:19:27.594Z,100742.03
2023-12-29T09:22:04.523Z,100740.16
2023-12-29T09:24:32.382Z,100742.03
2023-12-29T09:27:00.124Z,100742.84
2023-12-29T09:29:27.918Z,100735.84
2023-12-29T09:31:55.725Z,100750.91
2023-12-29T09:34:24.871Z,100743.91
2023-12-29T09:36:52.843Z,100745.75
2023-12-29T09:39:20.602Z,100750.31
2023-12-29T09:41:49.341Z,100739.78
2023-12-29T09:44:17.589Z,100759.44
2023-12-29T09:46:47.013Z,100752.19
2023-12-29T09:49:16.201Z,100764.81
2023-12-29T09:51:45.932Z,100766.69
2023-12-29T09:54:14.858Z,100760.25
2023-12-29T09:56:43.226Z,100748.09
2023-12-29T09:59:12.172Z,100767.50
2023-12-29T10:01:41.362Z,100755.09
2023-12-29T10:04:09.806Z,100741.44
2023-12-29T10:06:40.854Z,100742.25
2023-12-29T10:09:14.774Z,100742.47
2023-12-29T10:11:44.344Z,100724.47
2023-12-29T10:14:23.494Z,100736.06
2023-12-29T10:16:57.046Z,100739.78
2023-12-29T10:19:32.844Z,100747.50
2023-12-29T10:22:08.147Z,100753.25
2023-12-29T10:24:38.789Z,100768.31
2023-12-29T10:27:07.233Z,100772.06
2023-12-29T10:29:36.034Z,100765.03
2023-12-29T10:32:04.027Z,100764.81
2023-12-29T10:34:33.010Z,100762.34
2023-12-29T10:37:02.431Z,100761.31
2023-12-29T10:39:30.260Z,100772.06
2023-12-29T10:42:10.410Z,100774.75
2023-12-29T10:44:39.483Z,100773.69
2023-12-29T10:47:11.543Z,100773.69
2023-12-29T10:49:40.129Z,100802.22
2023-12-29T10:52:15.286Z,100794.75
2023-12-29T10:54:43.598Z,100790.44
2023-12-29T10:57:14.464Z,100790.78
2023-12-29T10:59:42.397Z,100782.97
2023-12-29T11:02:16.167Z,100786.63
2023-12-29T11:04:44.140Z,100776.31
2023-12-29T11:07:14.473Z,100781.91
2023-12-29T11:09:43.433Z,100778.41
2023-12-29T11:12:15.165Z,100782.72
2023-12-29T11:14:47.172Z,100776.53
2023-12-29T11:17:16.720Z,100785.41
2023-12-29T11:19:48.062Z,100783.19
2023-12-29T11:22:18.827Z,100795.13
2023-12-29T11:24:48.621Z,100804.03
2023-12-29T11:27:18.547Z,100797.81
2023-12-29T11:29:47.940Z,100789.75
2023-12-29T11:32:22.705Z,100788.94
2023-12-29T11:34:55.804Z,100788.09
2023-12-29T11:37:31.609Z,100783.56
2023-12-29T11:40:13.463Z,100782.72
2023-12-29T11:42:44.064Z,100773.84
2023-12-29T11:45:30.328Z,100761.91
2023-12-29T11:47:58.531Z,100772.44
2023-12-29T11:50:31.688Z,100769.50
2023-12-29T11:53:00.712Z,100760.84
2023-12-29T11:55:32.880Z,100756.28
2023-12-29T11:58:02.348Z,100740.16
2023-12-29T12:00:47.717Z,100721.34
2023-12-29T12:03:17.853Z,100739.34
2023-12-29T12:05:49.808Z,100730.91
2023-12-29T12:08:32.161Z,100744.25
2023-12-29T12:11:38.300Z,100737.47
2023-12-29T12:14:07.434Z,100716.78
2023-12-29T12:16:54.390Z,100729.19
2023-12-29T12:19:25.461Z,100745.53
2023-12-29T12:21:56.214Z,100742.84
2023-12-29T12:24:24.136Z,100740.16
2023-12-29T12:26:51.931Z,100752.78
2023-12-29T12:29:21.495Z,100739.34
2023-12-29T12:31:56.771Z,100735.00
2023-12-29T12:34:25.411Z,100728.59
2023-12-29T12:36:57.619Z,100717.00
2023-12-29T12:39:25.790Z,100718.88
2023-12-29T12:41:53.674Z,100716.19
2023-12-29T12:44:28.578Z,100712.47
2023-12-29T12:47:00.457Z,100711.63
2023-12-29T12:49:28.319Z,100710.59
2023-12-29T12:51:56.586Z,100701.69
2023-12-29T12:54:24.627Z,100686.03
2023-12-29T12:56:52.784Z,100681.84
2023-12-29T12:59:22.526Z,100679.16
2023-12-29T13:01:50.577Z,100678.09
2023-12-29T13:04:19.202Z,100685.38
2023-12-29T13:06:49.341Z,100691.81
2023-12-29T13:09:20.789Z,100703.84
2023-12-29T13:11:48.803Z,100699.50
2023-12-29T13:14:24.705Z,100694.59
2023-12-29T13:16:52.528Z,100693.78
2023-12-29T13:19:21.621Z,100697.28
2023-12-29T13:21:50.160Z,100684.88
2023-12-29T13:24:18.876Z,100681.38
2023-12-29T13:26:48.974Z,100694.59
2023-12-29T13:29:17.065Z,100684.66
2023-12-29T13:31:47.409Z,100677.41
2023-12-29T13:34:19.231Z,100680.09
2023-12-29T13:36:53.279Z,100673.91
2023-12-29T13:39:32.089Z,100671.22
2023-12-29T13:42:03.046Z,100674.94
2023-12-29T13:44:31.717Z,100657.78
2023-12-29T13:47:01.442Z,100670.41
2023-12-29T13:49:29.546Z,100672.25
2023-12-29T13:52:02.357Z,100674.13
2023-12-29T13:54:30.107Z,100674.94
2023-12-29T13:56:58.086Z,100674.34
2023-12-29T13:59:33.113Z,100682.19
2023-12-29T14:02:21.062Z,100680.34
2023-12-29T14:04:48.975Z,100678.47
2023-12-29T14:07:17.294Z,100684.66
2023-12-29T14:09:45.131Z,100677.63
2023-12-29T14:12:12.979Z,100673.31
2023-12-29T14:14:40.900Z,100670.63
2023-12-29T14:17:11.832Z,100666.88
2023-12-29T14:19:40.194Z,100677.63
2023-12-29T14:22:07.978Z,100667.94
2023-12-29T14:24:35.748Z,100681.38
2023-12-29T14:27:04.052Z,100680.34
2023-12-29T14:29:42.669Z,100691.91
2023-12-29T14:32:12.158Z,100685.72
2023-12-29T14:34:39.984Z,100685.72
2023-12-29T14:37:07.763Z,100702.88
2023-12-29T14:39:35.529Z,100699.16
2023-12-29T14:42:03.385Z,100699.97
2023-12-29T14:44:31.130Z,100696.47
2023-12-29T14:46:58.874Z,100696.47
2023-12-29T14:49:27.991Z,100698.09
2023-12-29T14:51:57.989Z,100694.59
2023-12-29T14:54:25.775Z,100692.72
2023-12-29T14:56:58.007Z,100694.59
2023-12-29T14:59:31.329Z,100684.66
2023-12-29T15:01:59.161Z,100681.16
2023-12-29T15:04:32.772Z,100683.84
2023-12-29T15:07:00.603Z,100668.75
2023-12-29T15:09:28.633Z,100681.50
2023-12-29T15:11:56.398Z,100678.19
2023-12-29T15:14:24.196Z,100655.41
2023-12-29T15:16:51.979Z,100664.09
2023-12-29T15:19:19.869Z,100660.47
2023-12-29T15:21:49.096Z,100645.66
2023-12-29T15:24:16.869Z,100647.97
2023-12-29T15:26:44.626Z,100645.59
2023-12-29T15:29:12.404Z,100639.69
2023-12-29T15:31:40.162Z,100638.69
2023-12-29T15:34:07.998Z,100636.06
2023-12-29T15:36:36.574Z,100632.75
2023-12-29T15:39:06.348Z,100628.13
2023-12-29T15:41:34.273Z,100640.63
2023-12-29T15:44:04.655Z,100638.50
2023-12-29T15:46:32.615Z,100645.78
2023-12-29T15:49:02.512Z,100636.81
2023-12-29T15:51:31.412Z,100623.47
2023-12-29T15:53:59.238Z,100638.84
2023-12-29T15:56:28.375Z,100627.00
2023-12-29T15:58:56.113Z,100632.97
2023-12-29T16:01:26.316Z,100621.94
2023-12-29T16:03:54.284Z,100626.41
2023-12-29T16:06:23.198Z,100625.66
2023-12-29T16:08:53.184Z,100622.44
2023-12-29T16:11:21.880Z,100638.81
2023-12-29T16:13:51.433Z,100637.34
2023-12-29T16:16:20.171Z,100625.53
2023-12-29T16:18:48.299Z,100622.38
2023-12-29T16:21:16.164Z,100621.84
2023-12-29T16:23:44.772Z,100613.09
2023-12-29T16:26:12.786Z,100590.16
2023-12-29T16:28:41.733Z,100612.88
2023-12-29T16:31:11.718Z,100608.44
2023-12-29T16:33:40.070Z,100598.69
2023-12-29T16:36:11.813Z,100608.97
2023-12-29T16:38:40.286Z,100603.25
2023-12-29T16:41:08.034Z,100594.00
2023-12-29T16:43:35.780Z,100592.59
2023-12-29T16:46:03.532Z,100594.00
2023-12-29T16:48:32.865Z,100572.13
2023-12-29T16:51:00.618Z,100572.72
2023-12-29T16:53:28.384Z,100582.41
2023-12-29T16:55:56.827Z,100585.00
2023-12-29T16:58:24.646Z,100588.38
2023-12-29T17:00:53.997Z,100592.38
2023-12-29T17:03:22.167Z,100602.19
2023-12-29T17:05:51.809Z,100596.81
2023-12-29T17:08:19.541Z,100597.75
2023-12-29T17:10:47.310Z,100605.13
2023-12-29T17:13:15.124Z,100594.41
2023-12-29T17:15:43.075Z,100589.88
2023-12-29T17:18:10.938Z,100609.06
2023-12-29T17:20:39.249Z,100602.31
2023-12-29T17:23:09.516Z,100593.44
2023-12-29T17:25:46.271Z,100605.91
2023-12-29T17:28:18.696Z,100604.19
2023-12-29T17:30:46.573Z,100601.69
2023-12-29T17:33:14.849Z,100607.34
2023-12-29T17:35:42.984Z,100601.75
2023-12-29T17:38:12.118Z,100619.19
2023-12-29T17:40:39.917Z,100614.59
2023-12-29T18:28:50.464Z,100679.63
2023-12-29T18:31:20.488Z,100710.28
2023-12-29T18:33:48.618Z,100730.47
2023-12-29T18:36:17.055Z,100719.94
2023-12-29T18:38:44.895Z,100720.69
2023-12-29T18:41:13.205Z,100716.13
2023-12-29T18:43:41.091Z,100705.66
2023-12-29T18:46:11.125Z,100702.13
2023-12-29T18:48:40.332Z,100712.41
2023-12-29T18:51:08.187Z,100721.84
2023-12-29T18:53:36.231Z,100745.56
2023-12-29T18:56:07.002Z,100745.75
2023-12-29T18:58:35.327Z,100729.78
2023-12-29T19:01:04.359Z,100728.59
2023-12-29T19:03:35.575Z,100727.47
2023-12-29T19:06:03.703Z,100730.75
2023-12-29T19:08:31.498Z,100742.72
2023-12-29T19:10:59.368Z,100740.38
2023-12-29T19:13:27.329Z,100739.34
2023-12-29T19:15:55.294Z,100742.84
2023-12-29T19:18:23.187Z,100750.09
2023-12-29T19:20:52.573Z,100743.06
2023-12-29T19:23:20.421Z,100739.56
2023-12-29T19:25:48.214Z,100746.50
2023-12-29T19:28:16.162Z,100753.88
2023-12-29T19:30:44.080Z,100749.94
2023-12-29T19:33:12.057Z,100751.56
2023-12-29T19:35:39.912Z,100750.53
2023-12-29T19:38:09.116Z,100746.09
2023-12-29T19:40:36.913Z,100754.31
2023-12-29T19:43:05.540Z,100761.09
2023-12-29T19:45:33.667Z,100759.97
2023-12-29T19:48:03.619Z,100758.69
2023-12-29T19:50:32.099Z,100755.78
2023-12-29T19:53:01.325Z,100744.19
2023-12-29T19:55:30.679Z,100747.34
2023-12-29T19:57:58.552Z,100753.53
2023-12-29T20:00:26.477Z,100745.69
2023-12-29T20:02:54.301Z,100755.63
2023-12-29T20:05:22.581Z,100756.69
2023-12-29T20:07:52.042Z,100757.72
2023-12-29T20:10:20.208Z,100756.91
2023-12-29T20:12:49.443Z,100756.09
2023-12-29T20:15:18.408Z,100760.66
2023-12-29T20:17:46.423Z,100760.41
2023-12-29T20:20:14.803Z,100761.09
2023-12-29T20:22:42.606Z,100765.88
2023-12-29T20:25:11.079Z,100762.38
2023-12-29T20:27:38.906Z,100764.47
2023-12-29T20:30:09.550Z,100774.63
2023-12-29T20:32:37.405Z,100768.44
2023-12-29T20:35:05.866Z,100767.84
2023-12-29T20:37:33.667Z,100771.00
2023-12-29T20:40:02.067Z,100771.00
2023-12-29T20:42:29.937Z,100764.56
2023-12-29T20:44:58.142Z,100751.34
2023-12-29T20:47:27.411Z,100771.59
2023-12-29T20:49:55.337Z,100771.81
2023-12-29T20:52:23.321Z,100783.84
2023-12-29T20:54:51.201Z,100774.94
2023-12-29T20:57:20.173Z,100786.16
2023-12-29T20:59:48.064Z,100787.22
2023-12-29T21:02:15.806Z,100786.00
2023-12-29T21:04:45.159Z,100802.75
2023-12-29T21:07:13.229Z,100804.63
2023-12-29T21:09:41.133Z,100802.97
2023-12-29T21:12:11.450Z,100811.03
2023-12-29T21:14:39.479Z,100811.03
2023-12-29T21:17:07.841Z,100818.72
2023-12-29T21:19:36.115Z,100824.34
2023-12-29T21:22:05.349Z,100826.19
2023-12-29T21:24:33.170Z,100837.78
2023-12-29T21:27:00.942Z,100826.44
2023-12-29T21:29:29.032Z,100819.41
2023-12-29T21:31:56.881Z,100814.84
2023-12-29T21:34:24.986Z,100813.81
2023-12-29T21:36:52.941Z,100813.22
2023-12-29T21:39:22.116Z,100798.94
2023-12-29T21:41:49.875Z,100811.34
2023-12-29T21:44:17.837Z,100811.78
2023-12-29T21:46:45.611Z,100823.38
2023-12-29T21:49:13.473Z,100812.25
2023-12-29T21:51:41.280Z,100818.44
2023-12-29T21:54:09.153Z,100825.47
2023-12-29T21:56:38.268Z,100827.09
2023-12-29T21:59:06.035Z,100828.97
2023-12-29T22:01:39.205Z,100826.28
2023-12-29T22:04:10.156Z,100822.78
2023-12-29T22:06:40.767Z,100827.31
2023-12-29T22:09:08.804Z,100826.50
2023-12-29T22:11:38.099Z,100826.50
2023-12-29T22:14:06.549Z,100824.03
2023-12-29T22:16:34.390Z,100834.78
2023-12-29T22:19:02.340Z,100839.34
2023-12-29T22:21:30.302Z,100860.25
2023-12-29T22:23:58.090Z,100842.69
2023-12-29T22:26:25.913Z,100852.41
2023-12-29T22:28:55.018Z,100845.59
2023-12-29T22:31:22.898Z,100847.25
2023-12-29T22:33:51.061Z,100847.47
2023-12-29T22:36:20.455Z,100852.84
2023-12-29T22:38:49.732Z,100853.91
2023-12-29T22:41:18.958Z,100860.53
2023-12-29T22:43:47.809Z,100871.28
2023-12-29T22:46:22.193Z,100873.97
2023-12-29T22:48:51.920Z,100883.09
2023-12-29T22:51:19.883Z,100891.38
2023-12-29T22:53:47.676Z,100888.09
2023-12-29T22:56:15.434Z,100907.94
2023-12-29T22:58:43.174Z,100893.31
2023-12-29T23:01:11.068Z,100892.47
2023-12-29T23:03:40.289Z,100883.59
2023-12-29T23:06:08.534Z,100884.03
2023-12-29T23:08:36.437Z,100893.75
2023-12-29T23:11:04.461Z,100891.06
2023-12-29T23:13:32.388Z,100900.16
2023-12-29T23:16:00.294Z,100911.72
2023-12-29T23:18:28.226Z,100897.47
2023-12-29T23:20:57.356Z,100900.16
2023-12-29T23:23:25.112Z,100905.53
2023-12-29T23:25:54.210Z,100902.03
2023-12-29T23:28:22.100Z,100907.63
2023-12-29T23:30:50.172Z,100909.47
2023-12-29T23:33:18.114Z,100915.06
2023-12-29T23:35:46.098Z,100908.88
2023-12-29T23:38:17.575Z,100919.84
2023-12-29T23:40:44.453Z,100921.72
2023-12-29T23:43:12.192Z,100919.03
2023-12-29T23:45:39.978Z,100919.84
2023-12-29T23:48:08.512Z,100925.22
2023-12-29T23:50:36.743Z,100930.59
2023-12-29T23:53:05.200Z,100900.56
2023-12-29T23:55:34.834Z,100936.41
2023-12-29T23:58:02.679Z,100940.34
